<?xml version="1.0" encoding="UTF-8" standalone="no" ?>
<gpx xmlns="http://www.topografix.com/GPX/1/1" xmlns:xsi="http://www.w3.org/2001/XMLSchema-instance" xsi:schemaLocation="http://www.topografix.com/GPX/1/1 http://www.topografix.com/GPX/1/1/gpx.xsd" version="1.1" creator="VisuGPX - https://www.visugpx.com">
  <metadata>
    <name>épaule de cornafion</name>
    <desc><![CDATA[rando agréable et rapide quand le temps nous presse
très bien pour débuter]]></desc>
  </metadata>
  <trk>
    <name><![CDATA[2013-03-02 épaule Cornafion ]]></name>
    <desc><![CDATA[<h1>OruxMaps</h1><br /><hr align="center" width="480" style="height: 2px; width: 517px"/><h2>Nom: 2013-03-02 épaule Cornafion </h2><br /><p>Temps de départ: 03/02/2013 08:39</p><p>Temps d'arrivée: 03/02/2013 11:44</p><p>Distance: 5,8 km (03:04)</p><p>Temps déplacement: 00:54</p><p>Vitesse moyenne: 1,9 km/h</p><p>Vitesse moyenne: 6,4 km/h</p><p>Vitess Max.: 25,9 km/h</p><p>Altitude minimale: 1182 m</p><p>Altitude maximale: 1915 m</p><p>Vitesse d'élévation: 294,8 m/h</p><p>Vitesse de descente: -1282,2 m/h</p><p>Gain Altitude: 736 m</p><p>Perte Altitude: -733 m</p><p>Temps d'élévation: 02:29</p><p>Temps de descente: 00:34</p><hr align="center" width="480" style="height: 2px; width: 517px"/>]]></desc>
    <trkseg>
      <trkpt lat="45.07305" lon="5.57936">
        <ele>1182.6893</ele>
        <time>2013-03-02T07:39:46Z</time>
      </trkpt>
      <trkpt lat="45.07309" lon="5.57962">
        <ele>1184.014</ele>
        <time>2013-03-02T07:41:54Z</time>
      </trkpt>
      <trkpt lat="45.073" lon="5.57985">
        <ele>1183.978</ele>
        <time>2013-03-02T07:42:15Z</time>
      </trkpt>
      <trkpt lat="45.07292" lon="5.58012">
        <ele>1183.922</ele>
        <time>2013-03-02T07:42:33Z</time>
      </trkpt>
      <trkpt lat="45.07281" lon="5.58034">
        <ele>1184.6913</ele>
        <time>2013-03-02T07:42:51Z</time>
      </trkpt>
      <trkpt lat="45.07271" lon="5.58056">
        <ele>1187.3501</ele>
        <time>2013-03-02T07:43:12Z</time>
      </trkpt>
      <trkpt lat="45.07268" lon="5.58081">
        <ele>1193.3354</ele>
        <time>2013-03-02T07:44:04Z</time>
      </trkpt>
      <trkpt lat="45.0727" lon="5.58108">
        <ele>1195.6261</ele>
        <time>2013-03-02T07:44:28Z</time>
      </trkpt>
      <trkpt lat="45.07278" lon="5.58133">
        <ele>1198.0913</ele>
        <time>2013-03-02T07:44:58Z</time>
      </trkpt>
      <trkpt lat="45.07281" lon="5.58158">
        <ele>1202.1458</ele>
        <time>2013-03-02T07:45:31Z</time>
      </trkpt>
      <trkpt lat="45.07279" lon="5.58184">
        <ele>1207.5315</ele>
        <time>2013-03-02T07:46:13Z</time>
      </trkpt>
      <trkpt lat="45.07275" lon="5.58209">
        <ele>1212.155</ele>
        <time>2013-03-02T07:46:46Z</time>
      </trkpt>
      <trkpt lat="45.07272" lon="5.58234">
        <ele>1217.144</ele>
        <time>2013-03-02T07:47:24Z</time>
      </trkpt>
      <trkpt lat="45.07267" lon="5.5826">
        <ele>1219.3496</ele>
        <time>2013-03-02T07:47:54Z</time>
      </trkpt>
      <trkpt lat="45.07263" lon="5.58286">
        <ele>1223.8241</ele>
        <time>2013-03-02T07:48:42Z</time>
      </trkpt>
      <trkpt lat="45.07257" lon="5.58312">
        <ele>1228.3093</ele>
        <time>2013-03-02T07:49:18Z</time>
      </trkpt>
      <trkpt lat="45.0725" lon="5.58338">
        <ele>1232.3257</ele>
        <time>2013-03-02T07:49:54Z</time>
      </trkpt>
      <trkpt lat="45.07245" lon="5.58364">
        <ele>1237.5088</ele>
        <time>2013-03-02T07:50:24Z</time>
      </trkpt>
      <trkpt lat="45.07237" lon="5.58388">
        <ele>1242.7626</ele>
        <time>2013-03-02T07:50:51Z</time>
      </trkpt>
      <trkpt lat="45.07234" lon="5.58416">
        <ele>1247.1124</ele>
        <time>2013-03-02T07:54:05Z</time>
      </trkpt>
      <trkpt lat="45.07219" lon="5.58436">
        <ele>1252.6693</ele>
        <time>2013-03-02T07:54:35Z</time>
      </trkpt>
      <trkpt lat="45.072" lon="5.5845">
        <ele>1255.4183</ele>
        <time>2013-03-02T07:55:23Z</time>
      </trkpt>
      <trkpt lat="45.07181" lon="5.58447">
        <ele>1258.6632</ele>
        <time>2013-03-02T07:56:08Z</time>
      </trkpt>
      <trkpt lat="45.07163" lon="5.58445">
        <ele>1263.8474</ele>
        <time>2013-03-02T07:56:53Z</time>
      </trkpt>
      <trkpt lat="45.07144" lon="5.58442">
        <ele>1269.1328</ele>
        <time>2013-03-02T07:57:35Z</time>
      </trkpt>
      <trkpt lat="45.07127" lon="5.58451">
        <ele>1275.6145</ele>
        <time>2013-03-02T07:58:17Z</time>
      </trkpt>
      <trkpt lat="45.07109" lon="5.58456">
        <ele>1285.7673</ele>
        <time>2013-03-02T07:58:46Z</time>
      </trkpt>
      <trkpt lat="45.07094" lon="5.58479">
        <ele>1294.8019</ele>
        <time>2013-03-02T08:00:23Z</time>
      </trkpt>
      <trkpt lat="45.07086" lon="5.58503">
        <ele>1300.3905</ele>
        <time>2013-03-02T08:00:44Z</time>
      </trkpt>
      <trkpt lat="45.07069" lon="5.58517">
        <ele>1305.9117</ele>
        <time>2013-03-02T08:01:40Z</time>
      </trkpt>
      <trkpt lat="45.07055" lon="5.58534">
        <ele>1310.7399</ele>
        <time>2013-03-02T08:02:09Z</time>
      </trkpt>
      <trkpt lat="45.07046" lon="5.58557">
        <ele>1316.3501</ele>
        <time>2013-03-02T08:03:02Z</time>
      </trkpt>
      <trkpt lat="45.07036" lon="5.58578">
        <ele>1318.1235</ele>
        <time>2013-03-02T08:03:50Z</time>
      </trkpt>
      <trkpt lat="45.07025" lon="5.58604">
        <ele>1321.8619</ele>
        <time>2013-03-02T08:05:20Z</time>
      </trkpt>
      <trkpt lat="45.07017" lon="5.58628">
        <ele>1326.8906</ele>
        <time>2013-03-02T08:06:02Z</time>
      </trkpt>
      <trkpt lat="45.07016" lon="5.58653">
        <ele>1331.9282</ele>
        <time>2013-03-02T08:08:26Z</time>
      </trkpt>
      <trkpt lat="45.07027" lon="5.58693">
        <ele>1344.642</ele>
        <time>2013-03-02T08:08:48Z</time>
      </trkpt>
      <trkpt lat="45.07048" lon="5.5874">
        <ele>1353.3813</ele>
        <time>2013-03-02T08:10:01Z</time>
      </trkpt>
      <trkpt lat="45.07061" lon="5.58759">
        <ele>1368.4528</ele>
        <time>2013-03-02T08:10:39Z</time>
      </trkpt>
      <trkpt lat="45.07074" lon="5.5878">
        <ele>1375.9912</ele>
        <time>2013-03-02T08:10:57Z</time>
      </trkpt>
      <trkpt lat="45.07088" lon="5.588">
        <ele>1382.7474</ele>
        <time>2013-03-02T08:12:06Z</time>
      </trkpt>
      <trkpt lat="45.07113" lon="5.5883">
        <ele>1392.5115</ele>
        <time>2013-03-02T08:13:12Z</time>
      </trkpt>
      <trkpt lat="45.07126" lon="5.58848">
        <ele>1404.3666</ele>
        <time>2013-03-02T08:14:10Z</time>
      </trkpt>
      <trkpt lat="45.07143" lon="5.58867">
        <ele>1405.6362</ele>
        <time>2013-03-02T08:14:22Z</time>
      </trkpt>
      <trkpt lat="45.07159" lon="5.58883">
        <ele>1404.5197</ele>
        <time>2013-03-02T08:14:55Z</time>
      </trkpt>
      <trkpt lat="45.07171" lon="5.58907">
        <ele>1403.5425</ele>
        <time>2013-03-02T08:15:31Z</time>
      </trkpt>
      <trkpt lat="45.07181" lon="5.58931">
        <ele>1406.98</ele>
        <time>2013-03-02T08:15:58Z</time>
      </trkpt>
      <trkpt lat="45.07178" lon="5.58959">
        <ele>1415.706</ele>
        <time>2013-03-02T08:16:28Z</time>
      </trkpt>
      <trkpt lat="45.07176" lon="5.58986">
        <ele>1422.0973</ele>
        <time>2013-03-02T08:16:55Z</time>
      </trkpt>
      <trkpt lat="45.07177" lon="5.59012">
        <ele>1425.9246</ele>
        <time>2013-03-02T08:17:46Z</time>
      </trkpt>
      <trkpt lat="45.07184" lon="5.59036">
        <ele>1426.4258</ele>
        <time>2013-03-02T08:18:22Z</time>
      </trkpt>
      <trkpt lat="45.07184" lon="5.59063">
        <ele>1429.5519</ele>
        <time>2013-03-02T08:18:52Z</time>
      </trkpt>
      <trkpt lat="45.07185" lon="5.5909">
        <ele>1433.7274</ele>
        <time>2013-03-02T08:19:32Z</time>
      </trkpt>
      <trkpt lat="45.07184" lon="5.59116">
        <ele>1436.4796</ele>
        <time>2013-03-02T08:19:59Z</time>
      </trkpt>
      <trkpt lat="45.07182" lon="5.59142">
        <ele>1441.1311</ele>
        <time>2013-03-02T08:20:26Z</time>
      </trkpt>
      <trkpt lat="45.07174" lon="5.59166">
        <ele>1450.8776</ele>
        <time>2013-03-02T08:21:04Z</time>
      </trkpt>
      <trkpt lat="45.07187" lon="5.59184">
        <ele>1451.7373</ele>
        <time>2013-03-02T08:22:08Z</time>
      </trkpt>
      <trkpt lat="45.07173" lon="5.59205">
        <ele>1460.6575</ele>
        <time>2013-03-02T08:23:36Z</time>
      </trkpt>
      <trkpt lat="45.07167" lon="5.5923">
        <ele>1463.2831</ele>
        <time>2013-03-02T08:24:31Z</time>
      </trkpt>
      <trkpt lat="45.07158" lon="5.59255">
        <ele>1469.4216</ele>
        <time>2013-03-02T08:25:40Z</time>
      </trkpt>
      <trkpt lat="45.07145" lon="5.59274">
        <ele>1485.0065</ele>
        <time>2013-03-02T08:28:33Z</time>
      </trkpt>
      <trkpt lat="45.07131" lon="5.59291">
        <ele>1495.6007</ele>
        <time>2013-03-02T08:29:12Z</time>
      </trkpt>
      <trkpt lat="45.0712" lon="5.59313">
        <ele>1502.7976</ele>
        <time>2013-03-02T08:30:00Z</time>
      </trkpt>
      <trkpt lat="45.07118" lon="5.59339">
        <ele>1504.3497</ele>
        <time>2013-03-02T08:30:42Z</time>
      </trkpt>
      <trkpt lat="45.071" lon="5.59354">
        <ele>1507.1083</ele>
        <time>2013-03-02T08:35:10Z</time>
      </trkpt>
      <trkpt lat="45.07088" lon="5.59376">
        <ele>1512.048</ele>
        <time>2013-03-02T08:35:37Z</time>
      </trkpt>
      <trkpt lat="45.07071" lon="5.59386">
        <ele>1518.8684</ele>
        <time>2013-03-02T08:36:04Z</time>
      </trkpt>
      <trkpt lat="45.07057" lon="5.59405">
        <ele>1527.3965</ele>
        <time>2013-03-02T08:36:46Z</time>
      </trkpt>
      <trkpt lat="45.0705" lon="5.59428">
        <ele>1541.9786</ele>
        <time>2013-03-02T08:37:34Z</time>
      </trkpt>
      <trkpt lat="45.07033" lon="5.59442">
        <ele>1565.8489</ele>
        <time>2013-03-02T08:38:46Z</time>
      </trkpt>
      <trkpt lat="45.07024" lon="5.59464">
        <ele>1572.0876</ele>
        <time>2013-03-02T08:40:43Z</time>
      </trkpt>
      <trkpt lat="45.07013" lon="5.59488">
        <ele>1580.6333</ele>
        <time>2013-03-02T08:42:36Z</time>
      </trkpt>
      <trkpt lat="45.07" lon="5.59506">
        <ele>1591.0425</ele>
        <time>2013-03-02T08:43:54Z</time>
      </trkpt>
      <trkpt lat="45.06988" lon="5.59527">
        <ele>1592.5632</ele>
        <time>2013-03-02T08:44:51Z</time>
      </trkpt>
      <trkpt lat="45.06999" lon="5.59548">
        <ele>1587.331</ele>
        <time>2013-03-02T08:46:11Z</time>
      </trkpt>
      <trkpt lat="45.06988" lon="5.59569">
        <ele>1592.4857</ele>
        <time>2013-03-02T08:56:45Z</time>
      </trkpt>
      <trkpt lat="45.06971" lon="5.59584">
        <ele>1601.2473</ele>
        <time>2013-03-02T08:57:18Z</time>
      </trkpt>
      <trkpt lat="45.06958" lon="5.59603">
        <ele>1612.1405</ele>
        <time>2013-03-02T08:57:48Z</time>
      </trkpt>
      <trkpt lat="45.0694" lon="5.59611">
        <ele>1622.2678</ele>
        <time>2013-03-02T08:58:24Z</time>
      </trkpt>
      <trkpt lat="45.06924" lon="5.59622">
        <ele>1626.2065</ele>
        <time>2013-03-02T08:59:26Z</time>
      </trkpt>
      <trkpt lat="45.06906" lon="5.59617">
        <ele>1629.7192</ele>
        <time>2013-03-02T09:00:29Z</time>
      </trkpt>
      <trkpt lat="45.06893" lon="5.59635">
        <ele>1632.9381</ele>
        <time>2013-03-02T09:01:08Z</time>
      </trkpt>
      <trkpt lat="45.06878" lon="5.59652">
        <ele>1644.4784</ele>
        <time>2013-03-02T09:02:08Z</time>
      </trkpt>
      <trkpt lat="45.06862" lon="5.59665">
        <ele>1655.9937</ele>
        <time>2013-03-02T09:03:02Z</time>
      </trkpt>
      <trkpt lat="45.06845" lon="5.59673">
        <ele>1665.3389</ele>
        <time>2013-03-02T09:04:11Z</time>
      </trkpt>
      <trkpt lat="45.06835" lon="5.597">
        <ele>1669.4402</ele>
        <time>2013-03-02T09:06:07Z</time>
      </trkpt>
      <trkpt lat="45.06825" lon="5.59723">
        <ele>1677.4443</ele>
        <time>2013-03-02T09:06:49Z</time>
      </trkpt>
      <trkpt lat="45.0682" lon="5.59751">
        <ele>1681.741</ele>
        <time>2013-03-02T09:07:07Z</time>
      </trkpt>
      <trkpt lat="45.0681" lon="5.59772">
        <ele>1686.8278</ele>
        <time>2013-03-02T09:07:55Z</time>
      </trkpt>
      <trkpt lat="45.06791" lon="5.59779">
        <ele>1692.262</ele>
        <time>2013-03-02T09:08:31Z</time>
      </trkpt>
      <trkpt lat="45.06775" lon="5.59795">
        <ele>1702.6517</ele>
        <time>2013-03-02T09:13:03Z</time>
      </trkpt>
      <trkpt lat="45.06783" lon="5.59819">
        <ele>1705.3799</ele>
        <time>2013-03-02T09:14:11Z</time>
      </trkpt>
      <trkpt lat="45.06767" lon="5.59834">
        <ele>1716.1523</ele>
        <time>2013-03-02T09:15:05Z</time>
      </trkpt>
      <trkpt lat="45.06756" lon="5.59855">
        <ele>1723.5428</ele>
        <time>2013-03-02T09:16:02Z</time>
      </trkpt>
      <trkpt lat="45.06741" lon="5.59871">
        <ele>1728.5054</ele>
        <time>2013-03-02T09:18:41Z</time>
      </trkpt>
      <trkpt lat="45.06719" lon="5.5988">
        <ele>1731.4188</ele>
        <time>2013-03-02T09:19:35Z</time>
      </trkpt>
      <trkpt lat="45.06705" lon="5.599">
        <ele>1736.8213</ele>
        <time>2013-03-02T09:20:13Z</time>
      </trkpt>
      <trkpt lat="45.06685" lon="5.59903">
        <ele>1741.5214</ele>
        <time>2013-03-02T09:20:43Z</time>
      </trkpt>
      <trkpt lat="45.06667" lon="5.59918">
        <ele>1755.5165</ele>
        <time>2013-03-02T09:21:16Z</time>
      </trkpt>
      <trkpt lat="45.06649" lon="5.59928">
        <ele>1764.2913</ele>
        <time>2013-03-02T09:22:17Z</time>
      </trkpt>
      <trkpt lat="45.06635" lon="5.59946">
        <ele>1767.1611</ele>
        <time>2013-03-02T09:22:47Z</time>
      </trkpt>
      <trkpt lat="45.06627" lon="5.59969">
        <ele>1777.8579</ele>
        <time>2013-03-02T09:24:10Z</time>
      </trkpt>
      <trkpt lat="45.06616" lon="5.59989">
        <ele>1792.6371</ele>
        <time>2013-03-02T09:25:38Z</time>
      </trkpt>
      <trkpt lat="45.06597" lon="5.59983">
        <ele>1808.8042</ele>
        <time>2013-03-02T09:26:09Z</time>
      </trkpt>
      <trkpt lat="45.06587" lon="5.59961">
        <ele>1812.7877</ele>
        <time>2013-03-02T09:26:57Z</time>
      </trkpt>
      <trkpt lat="45.06579" lon="5.59989">
        <ele>1821.8116</ele>
        <time>2013-03-02T09:28:36Z</time>
      </trkpt>
      <trkpt lat="45.06576" lon="5.60014">
        <ele>1833.3743</ele>
        <time>2013-03-02T09:31:35Z</time>
      </trkpt>
      <trkpt lat="45.0656" lon="5.60028">
        <ele>1845.5685</ele>
        <time>2013-03-02T09:32:40Z</time>
      </trkpt>
      <trkpt lat="45.06546" lon="5.60045">
        <ele>1854.1276</ele>
        <time>2013-03-02T09:34:38Z</time>
      </trkpt>
      <trkpt lat="45.0653" lon="5.6003">
        <ele>1858.8334</ele>
        <time>2013-03-02T09:38:01Z</time>
      </trkpt>
      <trkpt lat="45.06525" lon="5.60004">
        <ele>1856.824</ele>
        <time>2013-03-02T09:38:34Z</time>
      </trkpt>
      <trkpt lat="45.06512" lon="5.59984">
        <ele>1852.9081</ele>
        <time>2013-03-02T09:39:09Z</time>
      </trkpt>
      <trkpt lat="45.065" lon="5.59964">
        <ele>1846.8053</ele>
        <time>2013-03-02T09:39:41Z</time>
      </trkpt>
      <trkpt lat="45.0649" lon="5.59943">
        <ele>1848.436</ele>
        <time>2013-03-02T09:40:20Z</time>
      </trkpt>
      <trkpt lat="45.06482" lon="5.59919">
        <ele>1853.0763</ele>
        <time>2013-03-02T09:41:14Z</time>
      </trkpt>
      <trkpt lat="45.06474" lon="5.59895">
        <ele>1858.0313</ele>
        <time>2013-03-02T09:41:41Z</time>
      </trkpt>
      <trkpt lat="45.06458" lon="5.59882">
        <ele>1868.2716</ele>
        <time>2013-03-02T09:42:20Z</time>
      </trkpt>
      <trkpt lat="45.06443" lon="5.59862">
        <ele>1877.1045</ele>
        <time>2013-03-02T09:43:05Z</time>
      </trkpt>
      <trkpt lat="45.06428" lon="5.59847">
        <ele>1885.4219</ele>
        <time>2013-03-02T09:46:42Z</time>
      </trkpt>
      <trkpt lat="45.06413" lon="5.59829">
        <ele>1891.0732</ele>
        <time>2013-03-02T09:47:12Z</time>
      </trkpt>
      <trkpt lat="45.06397" lon="5.59814">
        <ele>1897.724</ele>
        <time>2013-03-02T09:47:39Z</time>
      </trkpt>
      <trkpt lat="45.06381" lon="5.59799">
        <ele>1902.124</ele>
        <time>2013-03-02T09:48:12Z</time>
      </trkpt>
      <trkpt lat="45.06362" lon="5.59793">
        <ele>1906.6</ele>
        <time>2013-03-02T09:48:36Z</time>
      </trkpt>
      <trkpt lat="45.06345" lon="5.59781">
        <ele>1909.271</ele>
        <time>2013-03-02T09:49:06Z</time>
      </trkpt>
      <trkpt lat="45.06336" lon="5.59758">
        <ele>1908.7677</ele>
        <time>2013-03-02T09:49:36Z</time>
      </trkpt>
      <trkpt lat="45.06324" lon="5.59737">
        <ele>1909.0988</ele>
        <time>2013-03-02T09:51:21Z</time>
      </trkpt>
      <trkpt lat="45.06312" lon="5.59759">
        <ele>1910.2625</ele>
        <time>2013-03-02T09:51:45Z</time>
      </trkpt>
      <trkpt lat="45.06306" lon="5.59786">
        <ele>1912.2054</ele>
        <time>2013-03-02T09:52:12Z</time>
      </trkpt>
      <trkpt lat="45.06301" lon="5.59812">
        <ele>1915.2734</ele>
        <time>2013-03-02T09:52:33Z</time>
      </trkpt>
      <trkpt lat="45.063" lon="5.59784">
        <ele>1912.2177</ele>
        <time>2013-03-02T09:54:58Z</time>
      </trkpt>
      <trkpt lat="45.06313" lon="5.59762">
        <ele>1911.3065</ele>
        <time>2013-03-02T09:55:25Z</time>
      </trkpt>
      <trkpt lat="45.06321" lon="5.5974">
        <ele>1909.6664</ele>
        <time>2013-03-02T09:55:50Z</time>
      </trkpt>
      <trkpt lat="45.06338" lon="5.59764">
        <ele>1908.9844</ele>
        <time>2013-03-02T10:12:31Z</time>
      </trkpt>
      <trkpt lat="45.06347" lon="5.59789">
        <ele>1909.2618</ele>
        <time>2013-03-02T10:12:37Z</time>
      </trkpt>
      <trkpt lat="45.06358" lon="5.59816">
        <ele>1910.3608</ele>
        <time>2013-03-02T10:12:43Z</time>
      </trkpt>
      <trkpt lat="45.06374" lon="5.59855">
        <ele>1911.8114</ele>
        <time>2013-03-02T10:12:49Z</time>
      </trkpt>
      <trkpt lat="45.06391" lon="5.59888">
        <ele>1913.55</ele>
        <time>2013-03-02T10:12:55Z</time>
      </trkpt>
      <trkpt lat="45.06404" lon="5.59913">
        <ele>1910.8386</ele>
        <time>2013-03-02T10:13:01Z</time>
      </trkpt>
      <trkpt lat="45.06419" lon="5.59942">
        <ele>1905.9818</ele>
        <time>2013-03-02T10:13:07Z</time>
      </trkpt>
      <trkpt lat="45.06429" lon="5.59968">
        <ele>1900.3978</ele>
        <time>2013-03-02T10:13:13Z</time>
      </trkpt>
      <trkpt lat="45.0644" lon="5.5999">
        <ele>1893.9583</ele>
        <time>2013-03-02T10:13:36Z</time>
      </trkpt>
      <trkpt lat="45.06462" lon="5.59996">
        <ele>1887.7854</ele>
        <time>2013-03-02T10:13:42Z</time>
      </trkpt>
      <trkpt lat="45.06483" lon="5.60007">
        <ele>1879.726</ele>
        <time>2013-03-02T10:13:48Z</time>
      </trkpt>
      <trkpt lat="45.06502" lon="5.60018">
        <ele>1871.1995</ele>
        <time>2013-03-02T10:13:54Z</time>
      </trkpt>
      <trkpt lat="45.06524" lon="5.60003">
        <ele>1864.7681</ele>
        <time>2013-03-02T10:14:00Z</time>
      </trkpt>
      <trkpt lat="45.06521" lon="5.60028">
        <ele>1859.8519</ele>
        <time>2013-03-02T10:14:59Z</time>
      </trkpt>
      <trkpt lat="45.06538" lon="5.60055">
        <ele>1859.6611</ele>
        <time>2013-03-02T10:15:08Z</time>
      </trkpt>
      <trkpt lat="45.06554" lon="5.60086">
        <ele>1864.1632</ele>
        <time>2013-03-02T10:15:14Z</time>
      </trkpt>
      <trkpt lat="45.0657" lon="5.60108">
        <ele>1884.1055</ele>
        <time>2013-03-02T10:15:19Z</time>
      </trkpt>
      <trkpt lat="45.06602" lon="5.60125">
        <ele>1878.8389</ele>
        <time>2013-03-02T10:15:25Z</time>
      </trkpt>
      <trkpt lat="45.06622" lon="5.60126">
        <ele>1865.415</ele>
        <time>2013-03-02T10:15:34Z</time>
      </trkpt>
      <trkpt lat="45.06645" lon="5.60137">
        <ele>1840.8153</ele>
        <time>2013-03-02T10:15:43Z</time>
      </trkpt>
      <trkpt lat="45.06663" lon="5.60151">
        <ele>1813.8982</ele>
        <time>2013-03-02T10:16:16Z</time>
      </trkpt>
      <trkpt lat="45.06681" lon="5.60121">
        <ele>1806.2764</ele>
        <time>2013-03-02T10:16:22Z</time>
      </trkpt>
      <trkpt lat="45.06699" lon="5.60088">
        <ele>1794.3215</ele>
        <time>2013-03-02T10:16:28Z</time>
      </trkpt>
      <trkpt lat="45.06724" lon="5.60054">
        <ele>1778.1224</ele>
        <time>2013-03-02T10:16:34Z</time>
      </trkpt>
      <trkpt lat="45.06709" lon="5.60026">
        <ele>1751.1888</ele>
        <time>2013-03-02T10:17:52Z</time>
      </trkpt>
      <trkpt lat="45.06697" lon="5.6">
        <ele>1748.9482</ele>
        <time>2013-03-02T10:18:10Z</time>
      </trkpt>
      <trkpt lat="45.06686" lon="5.59969">
        <ele>1748.7797</ele>
        <time>2013-03-02T10:18:19Z</time>
      </trkpt>
      <trkpt lat="45.06702" lon="5.59935">
        <ele>1744.9518</ele>
        <time>2013-03-02T10:18:25Z</time>
      </trkpt>
      <trkpt lat="45.06726" lon="5.59921">
        <ele>1741.188</ele>
        <time>2013-03-02T10:18:31Z</time>
      </trkpt>
      <trkpt lat="45.06744" lon="5.59887">
        <ele>1736.8114</ele>
        <time>2013-03-02T10:18:37Z</time>
      </trkpt>
      <trkpt lat="45.06747" lon="5.59853">
        <ele>1732.8083</ele>
        <time>2013-03-02T10:18:43Z</time>
      </trkpt>
      <trkpt lat="45.06739" lon="5.59817">
        <ele>1730.1986</ele>
        <time>2013-03-02T10:18:49Z</time>
      </trkpt>
      <trkpt lat="45.06734" lon="5.59777">
        <ele>1726.9945</ele>
        <time>2013-03-02T10:18:55Z</time>
      </trkpt>
      <trkpt lat="45.06748" lon="5.59755">
        <ele>1719.4</ele>
        <time>2013-03-02T10:19:10Z</time>
      </trkpt>
      <trkpt lat="45.06756" lon="5.59718">
        <ele>1710.5099</ele>
        <time>2013-03-02T10:19:42Z</time>
      </trkpt>
      <trkpt lat="45.0677" lon="5.59676">
        <ele>1708.7654</ele>
        <time>2013-03-02T10:19:48Z</time>
      </trkpt>
      <trkpt lat="45.06783" lon="5.59655">
        <ele>1706.4772</ele>
        <time>2013-03-02T10:19:54Z</time>
      </trkpt>
      <trkpt lat="45.06798" lon="5.59635">
        <ele>1699.0448</ele>
        <time>2013-03-02T10:20:28Z</time>
      </trkpt>
      <trkpt lat="45.06811" lon="5.59661">
        <ele>1689.9326</ele>
        <time>2013-03-02T10:20:43Z</time>
      </trkpt>
      <trkpt lat="45.06811" lon="5.59701">
        <ele>1687.6298</ele>
        <time>2013-03-02T10:20:49Z</time>
      </trkpt>
      <trkpt lat="45.06819" lon="5.59672">
        <ele>1682.0409</ele>
        <time>2013-03-02T10:21:30Z</time>
      </trkpt>
      <trkpt lat="45.06838" lon="5.59681">
        <ele>1676.9662</ele>
        <time>2013-03-02T10:21:42Z</time>
      </trkpt>
      <trkpt lat="45.06842" lon="5.59643">
        <ele>1670.6254</ele>
        <time>2013-03-02T10:21:57Z</time>
      </trkpt>
      <trkpt lat="45.06852" lon="5.59621">
        <ele>1667.7767</ele>
        <time>2013-03-02T10:22:47Z</time>
      </trkpt>
      <trkpt lat="45.06861" lon="5.59596">
        <ele>1667.9152</ele>
        <time>2013-03-02T10:22:56Z</time>
      </trkpt>
      <trkpt lat="45.06876" lon="5.59576">
        <ele>1663.3158</ele>
        <time>2013-03-02T10:23:05Z</time>
      </trkpt>
      <trkpt lat="45.06899" lon="5.59585">
        <ele>1645.5438</ele>
        <time>2013-03-02T10:23:58Z</time>
      </trkpt>
      <trkpt lat="45.0692" lon="5.59572">
        <ele>1638.6139</ele>
        <time>2013-03-02T10:24:04Z</time>
      </trkpt>
      <trkpt lat="45.06919" lon="5.59534">
        <ele>1630.5676</ele>
        <time>2013-03-02T10:24:48Z</time>
      </trkpt>
      <trkpt lat="45.06932" lon="5.5951">
        <ele>1632.3745</ele>
        <time>2013-03-02T10:25:05Z</time>
      </trkpt>
      <trkpt lat="45.06959" lon="5.59508">
        <ele>1619.6381</ele>
        <time>2013-03-02T10:26:01Z</time>
      </trkpt>
      <trkpt lat="45.06978" lon="5.595">
        <ele>1605.2081</ele>
        <time>2013-03-02T10:26:40Z</time>
      </trkpt>
      <trkpt lat="45.06996" lon="5.5949">
        <ele>1600.4944</ele>
        <time>2013-03-02T10:26:46Z</time>
      </trkpt>
      <trkpt lat="45.07015" lon="5.59472">
        <ele>1592.9734</ele>
        <time>2013-03-02T10:26:52Z</time>
      </trkpt>
      <trkpt lat="45.07033" lon="5.59448">
        <ele>1570.6914</ele>
        <time>2013-03-02T10:27:02Z</time>
      </trkpt>
      <trkpt lat="45.07057" lon="5.59423">
        <ele>1557.4982</ele>
        <time>2013-03-02T10:27:08Z</time>
      </trkpt>
      <trkpt lat="45.07066" lon="5.59402">
        <ele>1527.3553</ele>
        <time>2013-03-02T10:28:04Z</time>
      </trkpt>
      <trkpt lat="45.0708" lon="5.59377">
        <ele>1522.9319</ele>
        <time>2013-03-02T10:28:19Z</time>
      </trkpt>
      <trkpt lat="45.07104" lon="5.59349">
        <ele>1516.9708</ele>
        <time>2013-03-02T10:28:25Z</time>
      </trkpt>
      <trkpt lat="45.07112" lon="5.59317">
        <ele>1511.7577</ele>
        <time>2013-03-02T10:28:31Z</time>
      </trkpt>
      <trkpt lat="45.07135" lon="5.59292">
        <ele>1506.1647</ele>
        <time>2013-03-02T10:28:37Z</time>
      </trkpt>
      <trkpt lat="45.07147" lon="5.59263">
        <ele>1496.4779</ele>
        <time>2013-03-02T10:28:43Z</time>
      </trkpt>
      <trkpt lat="45.0716" lon="5.59243">
        <ele>1476.258</ele>
        <time>2013-03-02T10:29:43Z</time>
      </trkpt>
      <trkpt lat="45.07169" lon="5.5921">
        <ele>1464.6593</ele>
        <time>2013-03-02T10:29:53Z</time>
      </trkpt>
      <trkpt lat="45.0718" lon="5.59176">
        <ele>1460.716</ele>
        <time>2013-03-02T10:29:59Z</time>
      </trkpt>
      <trkpt lat="45.07172" lon="5.59153">
        <ele>1449.475</ele>
        <time>2013-03-02T10:30:52Z</time>
      </trkpt>
      <trkpt lat="45.07179" lon="5.59127">
        <ele>1445.5455</ele>
        <time>2013-03-02T10:32:07Z</time>
      </trkpt>
      <trkpt lat="45.07181" lon="5.59094">
        <ele>1440.1475</ele>
        <time>2013-03-02T10:32:16Z</time>
      </trkpt>
      <trkpt lat="45.07182" lon="5.59066">
        <ele>1434.6849</ele>
        <time>2013-03-02T10:32:37Z</time>
      </trkpt>
      <trkpt lat="45.0718" lon="5.59034">
        <ele>1431.14</ele>
        <time>2013-03-02T10:32:46Z</time>
      </trkpt>
      <trkpt lat="45.07175" lon="5.58999">
        <ele>1428.741</ele>
        <time>2013-03-02T10:32:55Z</time>
      </trkpt>
      <trkpt lat="45.07174" lon="5.58966">
        <ele>1426.5515</ele>
        <time>2013-03-02T10:33:01Z</time>
      </trkpt>
      <trkpt lat="45.07173" lon="5.58935">
        <ele>1422.0101</ele>
        <time>2013-03-02T10:33:07Z</time>
      </trkpt>
      <trkpt lat="45.07163" lon="5.58903">
        <ele>1413.6083</ele>
        <time>2013-03-02T10:33:16Z</time>
      </trkpt>
      <trkpt lat="45.07151" lon="5.58881">
        <ele>1410.1694</ele>
        <time>2013-03-02T10:33:22Z</time>
      </trkpt>
      <trkpt lat="45.07127" lon="5.58858">
        <ele>1408.5851</ele>
        <time>2013-03-02T10:33:31Z</time>
      </trkpt>
      <trkpt lat="45.07109" lon="5.5884">
        <ele>1403.7278</ele>
        <time>2013-03-02T10:33:39Z</time>
      </trkpt>
      <trkpt lat="45.07094" lon="5.58824">
        <ele>1400.0795</ele>
        <time>2013-03-02T10:33:46Z</time>
      </trkpt>
      <trkpt lat="45.07081" lon="5.58804">
        <ele>1389.7112</ele>
        <time>2013-03-02T10:34:01Z</time>
      </trkpt>
      <trkpt lat="45.0706" lon="5.58775">
        <ele>1384.5139</ele>
        <time>2013-03-02T10:34:10Z</time>
      </trkpt>
      <trkpt lat="45.07048" lon="5.58755">
        <ele>1371.4406</ele>
        <time>2013-03-02T10:34:16Z</time>
      </trkpt>
      <trkpt lat="45.07037" lon="5.58727">
        <ele>1364.5018</ele>
        <time>2013-03-02T10:35:06Z</time>
      </trkpt>
      <trkpt lat="45.07022" lon="5.58703">
        <ele>1358.5219</ele>
        <time>2013-03-02T10:35:15Z</time>
      </trkpt>
      <trkpt lat="45.07016" lon="5.58669">
        <ele>1348.0792</ele>
        <time>2013-03-02T10:35:27Z</time>
      </trkpt>
      <trkpt lat="45.07016" lon="5.58638">
        <ele>1340.6506</ele>
        <time>2013-03-02T10:35:33Z</time>
      </trkpt>
      <trkpt lat="45.07033" lon="5.58615">
        <ele>1328.0045</ele>
        <time>2013-03-02T10:35:48Z</time>
      </trkpt>
      <trkpt lat="45.07037" lon="5.5859">
        <ele>1319.2648</ele>
        <time>2013-03-02T10:36:39Z</time>
      </trkpt>
      <trkpt lat="45.07054" lon="5.58598">
        <ele>1318.7777</ele>
        <time>2013-03-02T10:38:18Z</time>
      </trkpt>
      <trkpt lat="45.07071" lon="5.5858">
        <ele>1313.4902</ele>
        <time>2013-03-02T10:38:26Z</time>
      </trkpt>
      <trkpt lat="45.07079" lon="5.58553">
        <ele>1311.3628</ele>
        <time>2013-03-02T10:39:10Z</time>
      </trkpt>
      <trkpt lat="45.07102" lon="5.58536">
        <ele>1301.2512</ele>
        <time>2013-03-02T10:39:23Z</time>
      </trkpt>
      <trkpt lat="45.07122" lon="5.58527">
        <ele>1294.7611</ele>
        <time>2013-03-02T10:39:29Z</time>
      </trkpt>
      <trkpt lat="45.07142" lon="5.58517">
        <ele>1285.7942</ele>
        <time>2013-03-02T10:39:57Z</time>
      </trkpt>
      <trkpt lat="45.07163" lon="5.58507">
        <ele>1282.5353</ele>
        <time>2013-03-02T10:40:01Z</time>
      </trkpt>
      <trkpt lat="45.0718" lon="5.58491">
        <ele>1275.7297</ele>
        <time>2013-03-02T10:40:07Z</time>
      </trkpt>
      <trkpt lat="45.07202" lon="5.58482">
        <ele>1260.3907</ele>
        <time>2013-03-02T10:40:31Z</time>
      </trkpt>
      <trkpt lat="45.07203" lon="5.58434">
        <ele>1256.4117</ele>
        <time>2013-03-02T10:40:43Z</time>
      </trkpt>
      <trkpt lat="45.07194" lon="5.58401">
        <ele>1255.2355</ele>
        <time>2013-03-02T10:40:49Z</time>
      </trkpt>
      <trkpt lat="45.07184" lon="5.58367">
        <ele>1255.0385</ele>
        <time>2013-03-02T10:41:01Z</time>
      </trkpt>
      <trkpt lat="45.07174" lon="5.58332">
        <ele>1252.495</ele>
        <time>2013-03-02T10:41:07Z</time>
      </trkpt>
      <trkpt lat="45.07173" lon="5.58302">
        <ele>1249.0527</ele>
        <time>2013-03-02T10:41:13Z</time>
      </trkpt>
      <trkpt lat="45.07194" lon="5.58283">
        <ele>1243.0637</ele>
        <time>2013-03-02T10:41:19Z</time>
      </trkpt>
      <trkpt lat="45.07207" lon="5.58251">
        <ele>1236.1432</ele>
        <time>2013-03-02T10:41:25Z</time>
      </trkpt>
      <trkpt lat="45.07211" lon="5.58226">
        <ele>1222.3912</ele>
        <time>2013-03-02T10:42:28Z</time>
      </trkpt>
      <trkpt lat="45.07226" lon="5.58187">
        <ele>1218.5073</ele>
        <time>2013-03-02T10:42:37Z</time>
      </trkpt>
      <trkpt lat="45.07238" lon="5.58151">
        <ele>1213.447</ele>
        <time>2013-03-02T10:42:43Z</time>
      </trkpt>
      <trkpt lat="45.07255" lon="5.58131">
        <ele>1208.8076</ele>
        <time>2013-03-02T10:42:49Z</time>
      </trkpt>
      <trkpt lat="45.07265" lon="5.58097">
        <ele>1202.4467</ele>
        <time>2013-03-02T10:42:58Z</time>
      </trkpt>
      <trkpt lat="45.07267" lon="5.58071">
        <ele>1200</ele>
        <time>2013-03-02T10:43:01Z</time>
      </trkpt>
      <trkpt lat="45.07272" lon="5.58045">
        <ele>1196.8838</ele>
        <time>2013-03-02T10:43:04Z</time>
      </trkpt>
      <trkpt lat="45.07288" lon="5.5801">
        <ele>1191.5609</ele>
        <time>2013-03-02T10:43:10Z</time>
      </trkpt>
      <trkpt lat="45.07301" lon="5.57968">
        <ele>1188.448</ele>
        <time>2013-03-02T10:43:16Z</time>
      </trkpt>
      <trkpt lat="45.073" lon="5.57943">
        <ele>1185.9684</ele>
        <time>2013-03-02T10:44:01Z</time>
      </trkpt>
    </trkseg>
  </trk>
</gpx>